C.endeavour — E5U2790 — position and weather

sailwx.info

Track history (hours):
 
Tides and Currents Weather Stations Pressure Air Temp Water Temp Dewpoint Dewpoint Depression Visibility Wind Speed Wind Dir Waves Ship Positions

C.endeavour

Last reported at 2018-May-17 04:59 UTC. Time now 2018-May-21 11:13 UTC.
Position N 32°51' E 035°00'.

Length 88 m; draft 5.2 m.

Type: Cargo ship. MMSI: 518843000.

Date/timePositionNaut miles runAvg speedWind from/ knotsBaromVisibWave heightAir tempDewpointWater temp
2018-May-17 04:59N 32°51' E 035°00'0 0.0
2018-May-16 17:03N 32°51' E 035°00'0 0.0
2018-May-16 16:51N 32°51' E 035°00'0 0.0
2018-May-15 11:28N 32°51' E 034°60'3 6.5
2018-May-15 11:00N 32°52' E 034°57'4 8.1
2018-May-15 10:30N 32°53' E 034°52'4 7.9
2018-May-15 10:00N 32°53' E 034°47'4 7.9
2018-May-15 09:28N 32°55' E 034°43'4 2.5
2018-May-15 07:46N 32°56' E 034°38'2 7.7
2018-May-15 07:29N 32°56' E 034°40'4 7.6
2018-May-15 07:00N 32°55' E 034°45'4 7.5
2018-May-15 06:29N 32°54' E 034°49'4 7.5
2018-May-15 06:00N 32°53' E 034°53'4 7.5
2018-May-15 05:30N 32°52' E 034°57'3 0.5
2018-May-14 23:45N 32°50' E 035°00'0 0.0
2018-May-14 23:27N 32°50' E 035°00'0 0.0
2018-May-14 22:51N 32°50' E 035°00'0 0.0
2018-May-13 01:20N 32°50' E 035°00'0 0.0
2018-May-13 00:44N 32°50' E 035°01'0 0.0
2018-May-11 21:43N 32°50' E 035°00'0 0.0
2018-May-11 20:31N 32°50' E 035°00'0 0.0
2018-May-11 20:19N 32°50' E 035°00'0 0.0
2018-May-11 18:07N 32°50' E 035°00'0 0.0
2018-May-11 17:55N 32°50' E 035°00'0 0.0
2018-May-11 16:07N 32°50' E 035°00'0 0.0
2018-May-11 04:01N 32°50' E 035°00'0 0.1
2018-May-11 03:43N 32°50' E 035°00'0 0.0
2018-May-10 00:04N 32°50' E 035°00'0 0.0
2018-May-09 23:46N 32°50' E 035°01'0 0.0
2018-May-09 23:28N 32°50' E 035°00'0 0.0
2018-May-09 09:46N 32°50' E 035°00'1 0.1
2018-May-09 00:25N 32°51' E 034°60'3 7.8
2018-May-09 00:00N 32°52' E 034°56'4 8.1
2018-May-08 23:29N 32°53' E 034°51'4 8.0
2018-May-08 23:00N 32°54' E 034°47'4 8.3
2018-May-08 22:30N 32°54' E 034°42'  
Track history (hours):
 
Tides and Currents Weather Stations Pressure Air Temp Water Temp Dewpoint Dewpoint Depression Visibility Wind Speed Wind Dir Waves Ship Positions

C.endeavour

Last reported at 2018-May-17 04:59 UTC. Time now 2018-May-21 11:13 UTC.
Position N 32°51' E 035°00'.

Length 88 m; draft 5.2 m.

Type: Cargo ship. MMSI: 518843000.

Date/timePositionNaut miles runAvg speedWind from/ knotsBaromVisibWave heightAir tempDewpointWater temp
2018-May-17 04:59N 32°51' E 035°00'0 0.0
2018-May-16 17:03N 32°51' E 035°00'0 0.0
2018-May-16 16:51N 32°51' E 035°00'0 0.0
2018-May-15 11:28N 32°51' E 034°60'3 6.5
2018-May-15 11:00N 32°52' E 034°57'4 8.1
2018-May-15 10:30N 32°53' E 034°52'4 7.9
2018-May-15 10:00N 32°53' E 034°47'4 7.9
2018-May-15 09:28N 32°55' E 034°43'4 2.5
2018-May-15 07:46N 32°56' E 034°38'2 7.7
2018-May-15 07:29N 32°56' E 034°40'4 7.6
2018-May-15 07:00N 32°55' E 034°45'4 7.5
2018-May-15 06:29N 32°54' E 034°49'4 7.5
2018-May-15 06:00N 32°53' E 034°53'4 7.5
2018-May-15 05:30N 32°52' E 034°57'3 0.5
2018-May-14 23:45N 32°50' E 035°00'0 0.0
2018-May-14 23:27N 32°50' E 035°00'0 0.0
2018-May-14 22:51N 32°50' E 035°00'0 0.0
2018-May-13 01:20N 32°50' E 035°00'0 0.0
2018-May-13 00:44N 32°50' E 035°01'0 0.0
2018-May-11 21:43N 32°50' E 035°00'0 0.0
2018-May-11 20:31N 32°50' E 035°00'0 0.0
2018-May-11 20:19N 32°50' E 035°00'0 0.0
2018-May-11 18:07N 32°50' E 035°00'0 0.0
2018-May-11 17:55N 32°50' E 035°00'0 0.0
2018-May-11 16:07N 32°50' E 035°00'0 0.0
2018-May-11 04:01N 32°50' E 035°00'0 0.1
2018-May-11 03:43N 32°50' E 035°00'0 0.0
2018-May-10 00:04N 32°50' E 035°00'0 0.0
2018-May-09 23:46N 32°50' E 035°01'0 0.0
2018-May-09 23:28N 32°50' E 035°00'0 0.0
2018-May-09 09:46N 32°50' E 035°00'1 0.1
2018-May-09 00:25N 32°51' E 034°60'3 7.8
2018-May-09 00:00N 32°52' E 034°56'4 8.1
2018-May-08 23:29N 32°53' E 034°51'4 8.0
2018-May-08 23:00N 32°54' E 034°47'4 8.3
2018-May-08 22:30N 32°54' E 034°42'  

Dump ship's entire track history